sensor_id;sensor_type;location;lat;lon;timestamp;pressure;altitude;pressure_sealevel;temperature;humidity
20156;BME280;10238;49.556;10.956;2022-11-20T00:00:10;97892.56;;;1.24;100.00
20156;BME280;10238;49.556;10.956;2022-11-20T00:02:59;97879.59;;;1.23;100.00
20156;BME280;10238;49.556;10.956;2022-11-20T00:05:47;97873.53;;;1.22;100.00
20156;BME280;10238;49.556;10.956;2022-11-20T00:08:35;97863.91;;;1.23;100.00
20156;BME280;10238;49.556;10.956;2022-11-20T00:11:25;97873.75;;;1.19;100.00
20156;BME280;10238;49.556;10.956;2022-11-20T00:14:14;97873.00;;;1.17;100.00
20156;BME280;10238;49.556;10.956;2022-11-20T00:17:02;97872.06;;;1.18;100.00
20156;BME280;10238;49.556;10.956;2022-11-20T00:19:51;97862.47;;;1.06;100.00
20156;BME280;10238;49.556;10.956;2022-11-20T00:22:39;97852.50;;;1.11;100.00
20156;BME280;10238;49.556;10.956;2022-11-20T00:25:27;97854.91;;;1.14;100.00
20156;BME280;10238;49.556;10.956;2022-11-20T00:28:15;97861.72;;;1.17;100.00
20156;BME280;10238;49.556;10.956;2022-11-20T00:31:04;97862.97;;;1.11;100.00
20156;BME280;10238;49.556;10.956;2022-11-20T00:33:52;97877.75;;;1.12;100.00
20156;BME280;10238;49.556;10.956;2022-11-20T00:36:42;97861.09;;;1.13;100.00
20156;BME280;10238;49.556;10.956;2022-11-20T00:39:30;97860.88;;;1.16;100.00
20156;BME280;10238;49.556;10.956;2022-11-20T00:42:18;97863.25;;;1.19;100.00
20156;BME280;10238;49.556;10.956;2022-11-20T00:45:06;97876.50;;;1.05;100.00
20156;BME280;10238;49.556;10.956;2022-11-20T00:47:54;97884.25;;;0.94;100.00
20156;BME280;10238;49.556;10.956;2022-11-20T00:50:42;97878.59;;;1.00;100.00
20156;BME280;10238;49.556;10.956;2022-11-20T00:53:32;97873.75;;;1.07;100.00
20156;BME280;10238;49.556;10.956;2022-11-20T00:56:20;97876.03;;;1.11;100.00
20156;BME280;10238;49.556;10.956;2022-11-20T00:59:09;97881.06;;;1.14;100.00
20156;BME280;10238;49.556;10.956;2022-11-20T01:01:57;97871.44;;;1.15;100.00
20156;BME280;10238;49.556;10.956;2022-11-20T01:04:45;97876.56;;;1.16;100.00
20156;BME280;10238;49.556;10.956;2022-11-20T01:07:32;97868.72;;;1.16;100.00
20156;BME280;10238;49.556;10.956;2022-11-20T01:10:22;97873.88;;;1.05;100.00
20156;BME280;10238;49.556;10.956;2022-11-20T01:13:10;97884.00;;;1.10;100.00
20156;BME280;10238;49.556;10.956;2022-11-20T01:16:17;97877.53;;;1.15;100.00
20156;BME280;10238;49.556;10.956;2022-11-20T01:19:07;97873.94;;;1.16;100.00
20156;BME280;10238;49.556;10.956;2022-11-20T01:21:55;97871.44;;;1.15;100.00
20156;BME280;10238;49.556;10.956;2022-11-20T01:24:43;97875.72;;;1.16;100.00
20156;BME280;10238;49.556;10.956;2022-11-20T01:27:32;97883.91;;;1.11;100.00
20156;BME280;10238;49.556;10.956;2022-11-20T01:30:20;97875.13;;;1.12;100.00
20156;BME280;10238;49.556;10.956;2022-11-20T01:33:08;97874.91;;;1.15;100.00
20156;BME280;10238;49.556;10.956;2022-11-20T01:36:04;97878.97;;;1.19;100.00
20156;BME280;10238;49.556;10.956;2022-11-20T01:39:25;97883.41;;;1.06;100.00
20156;BME280;10238;49.556;10.956;2022-11-20T01:42:13;97870.00;;;1.11;100.00
20156;BME280;10238;49.556;10.956;2022-11-20T01:45:52;97873.94;;;1.16;100.00
20156;BME280;10238;49.556;10.956;2022-11-20T01:48:49;97872.72;;;1.09;100.00
20156;BME280;10238;49.556;10.956;2022-11-20T01:51:41;97867.28;;;1.12;100.00
20156;BME280;10238;49.556;10.956;2022-11-20T01:54:34;97871.75;;;1.10;100.00
20156;BME280;10238;49.556;10.956;2022-11-20T01:57:24;97869.66;;;1.15;100.00
20156;BME280;10238;49.556;10.956;2022-11-20T02:00:16;97868.72;;;1.16;100.00
20156;BME280;10238;49.556;10.956;2022-11-20T02:03:08;97864.13;;;1.20;100.00
20156;BME280;10238;49.556;10.956;2022-11-20T02:06:04;97862.19;;;1.22;100.00
20156;BME280;10238;49.556;10.956;2022-11-20T02:08:54;97866.63;;;1.21;100.00
20156;BME280;10238;49.556;10.956;2022-11-20T02:11:43;97863.06;;;1.22;100.00
20156;BME280;10238;49.556;10.956;2022-11-20T02:14:31;97867.13;;;1.26;100.00
20156;BME280;10238;49.556;10.956;2022-11-20T02:17:18;97869.50;;;1.29;100.00
20156;BME280;10238;49.556;10.956;2022-11-20T02:20:08;97880.94;;;1.28;100.00
20156;BME280;10238;49.556;10.956;2022-11-20T02:22:59;97871.19;;;1.30;100.00
20156;BME280;10238;49.556;10.956;2022-11-20T02:25:53;97865.94;;;1.30;100.00
20156;BME280;10238;49.556;10.956;2022-11-20T02:28:42;97861.56;;;1.31;100.00
20156;BME280;10238;49.556;10.956;2022-11-20T02:31:38;97860.59;;;1.32;100.00
20156;BME280;10238;49.556;10.956;2022-11-20T02:34:28;97857.16;;;1.31;100.00
20156;BME280;10238;49.556;10.956;2022-11-20T02:37:16;97849.41;;;1.30;100.00
20156;BME280;10238;49.556;10.956;2022-11-20T02:40:07;97856.22;;;1.32;100.00
20156;BME280;10238;49.556;10.956;2022-11-20T02:42:57;97862.41;;;1.31;100.00
20156;BME280;10238;49.556;10.956;2022-11-20T02:45:45;97860.72;;;1.30;100.00
20156;BME280;10238;49.556;10.956;2022-11-20T02:48:33;97861.66;;;1.29;100.00
20156;BME280;10238;49.556;10.956;2022-11-20T02:51:21;97872.03;;;1.31;100.00
20156;BME280;10238;49.556;10.956;2022-11-20T02:54:09;97860.50;;;1.33;100.00
20156;BME280;10238;49.556;10.956;2022-11-20T02:56:57;97850.88;;;1.34;100.00
20156;BME280;10238;49.556;10.956;2022-11-20T02:59:47;97853.59;;;1.32;100.00
20156;BME280;10238;49.556;10.956;2022-11-20T03:02:35;97850.00;;;1.33;100.00
20156;BME280;10238;49.556;10.956;2022-11-20T03:05:23;97856.09;;;1.34;100.00
20156;BME280;10238;49.556;10.956;2022-11-20T03:08:11;97847.28;;;1.35;100.00
20156;BME280;10238;49.556;10.956;2022-11-20T03:11:03;97849.78;;;1.36;100.00
20156;BME280;10238;49.556;10.956;2022-11-20T03:13:52;97844.56;;;1.36;100.00
20156;BME280;10238;49.556;10.956;2022-11-20T03:16:42;97842.06;;;1.35;100.00
20156;BME280;10238;49.556;10.956;2022-11-20T03:19:32;97841.25;;;1.34;100.00
20156;BME280;10238;49.556;10.956;2022-11-20T03:22:21;97838.63;;;1.34;100.00
20156;BME280;10238;49.556;10.956;2022-11-20T03:25:09;97830.53;;;1.37;100.00
20156;BME280;10238;49.556;10.956;2022-11-20T03:27:56;97831.59;;;1.35;100.00
20156;BME280;10238;49.556;10.956;2022-11-20T03:30:44;97830.78;;;1.34;100.00
20156;BME280;10238;49.556;10.956;2022-11-20T03:33:34;97829.81;;;1.35;100.00
20156;BME280;10238;49.556;10.956;2022-11-20T03:36:22;97829.06;;;1.33;100.00
20156;BME280;10238;49.556;10.956;2022-11-20T03:39:10;97831.69;;;1.33;100.00
20156;BME280;10238;49.556;10.956;2022-11-20T03:41:58;97832.44;;;1.35;100.00
20156;BME280;10238;49.556;10.956;2022-11-20T03:44:46;97839.53;;;1.33;100.00
20156;BME280;10238;49.556;10.956;2022-11-20T03:47:34;97827.63;;;1.29;100.00
20156;BME280;10238;49.556;10.956;2022-11-20T03:50:24;97830.69;;;1.23;100.00
20156;BME280;10238;49.556;10.956;2022-11-20T03:53:12;97824.75;;;1.21;100.00
20156;BME280;10238;49.556;10.956;2022-11-20T03:56:00;97827.00;;;1.26;100.00
20156;BME280;10238;49.556;10.956;2022-11-20T03:58:48;97823.47;;;1.27;100.00
20156;BME280;10238;49.556;10.956;2022-11-20T04:01:36;97817.38;;;1.26;100.00
20156;BME280;10238;49.556;10.956;2022-11-20T04:04:25;97815.50;;;1.28;100.00
20156;BME280;10238;49.556;10.956;2022-11-20T04:07:14;97815.94;;;1.22;100.00
20156;BME280;10238;49.556;10.956;2022-11-20T04:10:02;97819.16;;;1.26;100.00
20156;BME280;10238;49.556;10.956;2022-11-20T04:12:50;97812.38;;;1.23;100.00
20156;BME280;10238;49.556;10.956;2022-11-20T04:15:38;97814.16;;;1.23;100.00
20156;BME280;10238;49.556;10.956;2022-11-20T04:18:25;97813.22;;;1.24;100.00
20156;BME280;10238;49.556;10.956;2022-11-20T04:21:13;97814.03;;;1.24;100.00
20156;BME280;10238;49.556;10.956;2022-11-20T04:24:03;97815.72;;;1.25;100.00
20156;BME280;10238;49.556;10.956;2022-11-20T04:26:51;97815.59;;;1.27;100.00
20156;BME280;10238;49.556;10.956;2022-11-20T04:29:41;97815.50;;;1.28;100.00
20156;BME280;10238;49.556;10.956;2022-11-20T04:32:29;97810.25;;;1.28;100.00
20156;BME280;10238;49.556;10.956;2022-11-20T04:35:17;97816.31;;;1.29;100.00
20156;BME280;10238;49.556;10.956;2022-11-20T04:38:05;97815.50;;;1.28;100.00
20156;BME280;10238;49.556;10.956;2022-11-20T04:40:58;97807.53;;;1.30;100.00
20156;BME280;10238;49.556;10.956;2022-11-20T04:43:47;97809.31;;;1.29;100.00
20156;BME280;10238;49.556;10.956;2022-11-20T04:46:37;97810.25;;;1.28;100.00
20156;BME280;10238;49.556;10.956;2022-11-20T04:49:26;97808.34;;;1.30;100.00
20156;BME280;10238;49.556;10.956;2022-11-20T04:52:14;97813.59;;;1.30;100.00
20156;BME280;10238;49.556;10.956;2022-11-20T04:55:02;97812.16;;;1.26;100.00
20156;BME280;10238;49.556;10.956;2022-11-20T04:57:52;97805.13;;;1.27;100.00
20156;BME280;10238;49.556;10.956;2022-11-20T05:00:40;97810.25;;;1.28;100.00
20156;BME280;10238;49.556;10.956;2022-11-20T05:03:28;97805.94;;;1.27;100.00
20156;BME280;10238;49.556;10.956;2022-11-20T05:06:18;97804.84;;;1.19;100.00
20156;BME280;10238;49.556;10.956;2022-11-20T05:09:06;97808.97;;;1.10;100.00
20156;BME280;10238;49.556;10.956;2022-11-20T05:11:54;97809.69;;;1.12;100.00
20156;BME280;10238;49.556;10.956;2022-11-20T05:14:43;97807.78;;;1.14;100.00
20156;BME280;10238;49.556;10.956;2022-11-20T05:17:31;97798.78;;;1.18;100.00
20156;BME280;10238;49.556;10.956;2022-11-20T05:20:20;97803.81;;;1.21;100.00
20156;BME280;10238;49.556;10.956;2022-11-20T05:23:08;97801.91;;;1.23;100.00
20156;BME280;10238;49.556;10.956;2022-11-20T05:25:56;97794.78;;;1.25;100.00
20156;BME280;10238;49.556;10.956;2022-11-20T05:28:45;97802.53;;;1.27;100.00
20156;BME280;10238;49.556;10.956;2022-11-20T05:31:35;97794.56;;;1.28;100.00
20156;BME280;10238;49.556;10.956;2022-11-20T05:34:23;97795.00;;;1.22;100.00
20156;BME280;10238;49.556;10.956;2022-11-20T05:37:11;97789.13;;;1.19;100.00
20156;BME280;10238;49.556;10.956;2022-11-20T05:39:59;97779.50;;;1.19;100.00
20156;BME280;10238;49.556;10.956;2022-11-20T05:42:47;97775.50;;;1.26;100.00
20156;BME280;10238;49.556;10.956;2022-11-20T05:45:35;97786.94;;;1.25;100.00
20156;BME280;10238;49.556;10.956;2022-11-20T05:48:26;97780.13;;;1.23;100.00
20156;BME280;10238;49.556;10.956;2022-11-20T05:51:16;97784.09;;;1.28;100.00
20156;BME280;10238;49.556;10.956;2022-11-20T05:54:05;97780.28;;;1.32;100.00
20156;BME280;10238;49.556;10.956;2022-11-20T05:56:52;97779.44;;;1.32;100.00
20156;BME280;10238;49.556;10.956;2022-11-20T05:59:41;97779.56;;;1.30;100.00
20156;BME280;10238;49.556;10.956;2022-11-20T06:02:29;97782.28;;;1.29;100.00
20156;BME280;10238;49.556;10.956;2022-11-20T06:05:18;97780.28;;;1.32;100.00
20156;BME280;10238;49.556;10.956;2022-11-20T06:08:07;97771.69;;;1.30;100.00
20156;BME280;10238;49.556;10.956;2022-11-20T06:10:55;97773.09;;;1.23;100.00
20156;BME280;10238;49.556;10.956;2022-11-20T06:13:44;97785.59;;;1.20;100.00
20156;BME280;10238;49.556;10.956;2022-11-20T06:16:32;97785.13;;;1.26;100.00
20156;BME280;10238;49.556;10.956;2022-11-20T06:19:20;97783.25;;;1.28;100.00
20156;BME280;10238;49.556;10.956;2022-11-20T06:22:09;97785.63;;;1.31;100.00
20156;BME280;10238;49.556;10.956;2022-11-20T06:24:57;97784.69;;;1.32;100.00
20156;BME280;10238;49.556;10.956;2022-11-20T06:27:45;97784.09;;;1.28;100.00
20156;BME280;10238;49.556;10.956;2022-11-20T06:30:33;97785.75;;;1.29;100.00
20156;BME280;10238;49.556;10.956;2022-11-20T06:33:21;97791.72;;;1.31;100.00
20156;BME280;10238;49.556;10.956;2022-11-20T06:36:10;97787.41;;;1.30;100.00
20156;BME280;10238;49.556;10.956;2022-11-20T06:39:07;97795.25;;;1.30;100.00
20156;BME280;10238;49.556;10.956;2022-11-20T06:41:55;97789.13;;;1.19;100.00
20156;BME280;10238;49.556;10.956;2022-11-20T06:44:44;97789.25;;;1.17;100.00
20156;BME280;10238;49.556;10.956;2022-11-20T06:47:32;97791.66;;;1.20;100.00
20156;BME280;10238;49.556;10.956;2022-11-20T06:50:20;97787.84;;;1.24;100.00
20156;BME280;10238;49.556;10.956;2022-11-20T06:53:08;97791.94;;;1.28;100.00
20156;BME280;10238;49.556;10.956;2022-11-20T06:55:58;97790.75;;;1.32;100.00
20156;BME280;10238;49.556;10.956;2022-11-20T06:58:46;97796.00;;;1.32;100.00
20156;BME280;10238;49.556;10.956;2022-11-20T07:01:34;97785.53;;;1.32;100.00
20156;BME280;10238;49.556;10.956;2022-11-20T07:04:22;97790.53;;;1.35;100.00
20156;BME280;10238;49.556;10.956;2022-11-20T07:07:10;97797.44;;;1.36;100.00
20156;BME280;10238;49.556;10.956;2022-11-20T07:09:58;97800.16;;;1.35;100.00
20156;BME280;10238;49.556;10.956;2022-11-20T07:12:51;97810.63;;;1.35;100.00
20156;BME280;10238;49.556;10.956;2022-11-20T07:15:39;97809.81;;;1.34;100.00
20156;BME280;10238;49.556;10.956;2022-11-20T07:18:27;97811.59;;;1.34;100.00
20156;BME280;10238;49.556;10.956;2022-11-20T07:21:15;97810.53;;;1.36;100.00
20156;BME280;10238;49.556;10.956;2022-11-20T07:24:02;97808.53;;;1.40;100.00
20156;BME280;10238;49.556;10.956;2022-11-20T07:26:50;97812.09;;;1.39;100.00
20156;BME280;10238;49.556;10.956;2022-11-20T07:29:40;97809.38;;;1.40;100.00
20156;BME280;10238;49.556;10.956;2022-11-20T07:32:27;97801.00;;;1.35;100.00
20156;BME280;10238;49.556;10.956;2022-11-20T07:35:15;97806.25;;;1.35;100.00
20156;BME280;10238;49.556;10.956;2022-11-20T07:38:03;97813.16;;;1.36;100.00
20156;BME280;10238;49.556;10.956;2022-11-20T07:40:54;97811.25;;;1.38;100.00
20156;BME280;10238;49.556;10.956;2022-11-20T07:43:43;97812.00;;;1.40;100.00
20156;BME280;10238;49.556;10.956;2022-11-20T07:46:32;97809.13;;;1.43;100.00
20156;BME280;10238;49.556;10.956;2022-11-20T07:49:20;97816.06;;;1.44;100.00
20156;BME280;10238;49.556;10.956;2022-11-20T07:52:08;97818.44;;;1.47;100.00
20156;BME280;10238;49.556;10.956;2022-11-20T07:54:56;97815.63;;;1.50;100.00
20156;BME280;10238;49.556;10.956;2022-11-20T07:57:44;97811.19;;;1.51;100.00
20156;BME280;10238;49.556;10.956;2022-11-20T08:00:32;97807.53;;;1.53;100.00
20156;BME280;10238;49.556;10.956;2022-11-20T08:03:21;97815.38;;;1.53;100.00
20156;BME280;10238;49.556;10.956;2022-11-20T08:06:11;97811.06;;;1.52;100.00
20156;BME280;10238;49.556;10.956;2022-11-20T08:08:59;97812.25;;;1.48;100.00
20156;BME280;10238;49.556;10.956;2022-11-20T08:11:47;97815.00;;;1.47;100.00
20156;BME280;10238;49.556;10.956;2022-11-20T08:14:52;97813.09;;;1.49;100.00
20156;BME280;10238;49.556;10.956;2022-11-20T08:17:41;97808.47;;;1.52;100.00
20156;BME280;10238;49.556;10.956;2022-11-20T08:20:51;97818.81;;;1.54;100.00
20156;BME280;10238;49.556;10.956;2022-11-20T08:23:39;97811.81;;;1.54;100.00
20156;BME280;10238;49.556;10.956;2022-11-20T08:26:27;97815.16;;;1.56;100.00
20156;BME280;10238;49.556;10.956;2022-11-20T08:29:14;97811.59;;;1.57;100.00
20156;BME280;10238;49.556;10.956;2022-11-20T08:32:02;97812.66;;;1.55;100.00
20156;BME280;10238;49.556;10.956;2022-11-20T08:34:50;97810.38;;;1.50;100.00
20156;BME280;10238;49.556;10.956;2022-11-20T08:37:40;97804.06;;;1.53;100.00
20156;BME280;10238;49.556;10.956;2022-11-20T08:40:28;97804.41;;;1.48;100.00
20156;BME280;10238;49.556;10.956;2022-11-20T08:43:16;97803.66;;;1.46;100.00
20156;BME280;10238;49.556;10.956;2022-11-20T08:46:04;97808.47;;;1.52;100.00
20156;BME280;10238;49.556;10.956;2022-11-20T08:48:53;97805.63;;;1.55;100.00
20156;BME280;10238;49.556;10.956;2022-11-20T08:51:41;97801.69;;;1.61;100.00
20156;BME280;10238;49.556;10.956;2022-11-20T08:54:30;97806.81;;;1.62;100.00
20156;BME280;10238;49.556;10.956;2022-11-20T08:57:18;97805.91;;;1.63;100.00
20156;BME280;10238;49.556;10.956;2022-11-20T09:00:09;97812.81;;;1.64;100.00
20156;BME280;10238;49.556;10.956;2022-11-20T09:02:58;97809.22;;;1.65;100.00
20156;BME280;10238;49.556;10.956;2022-11-20T09:05:47;97809.00;;;1.68;100.00
20156;BME280;10238;49.556;10.956;2022-11-20T09:08:35;97807.84;;;1.72;100.00
20156;BME280;10238;49.556;10.956;2022-11-20T09:11:25;97804.16;;;1.75;100.00
20156;BME280;10238;49.556;10.956;2022-11-20T09:14:13;97810.25;;;1.75;100.00
20156;BME280;10238;49.556;10.956;2022-11-20T09:17:01;97792.84;;;1.74;100.00
20156;BME280;10238;49.556;10.956;2022-11-20T09:19:49;97803.94;;;1.78;100.00
20156;BME280;10238;49.556;10.956;2022-11-20T09:22:40;97797.63;;;1.80;100.00
20156;BME280;10238;49.556;10.956;2022-11-20T09:25:28;97800.00;;;1.83;100.00
20156;BME280;10238;49.556;10.956;2022-11-20T09:28:17;97789.41;;;1.85;100.00
20156;BME280;10238;49.556;10.956;2022-11-20T09:31:06;97799.78;;;1.86;100.00
20156;BME280;10238;49.556;10.956;2022-11-20T09:33:54;97793.59;;;1.87;100.00
20156;BME280;10238;49.556;10.956;2022-11-20T09:36:42;97787.53;;;1.87;100.00
20156;BME280;10238;49.556;10.956;2022-11-20T09:39:30;97787.41;;;1.88;100.00
20156;BME280;10238;49.556;10.956;2022-11-20T09:42:27;97799.44;;;1.91;100.00
20156;BME280;10238;49.556;10.956;2022-11-20T09:45:23;97812.78;;;1.88;100.00
20156;BME280;10238;49.556;10.956;2022-11-20T09:48:35;97806.44;;;1.90;100.00
20156;BME280;10238;49.556;10.956;2022-11-20T09:51:32;97794.31;;;1.89;100.00
20156;BME280;10238;49.556;10.956;2022-11-20T09:54:27;97805.03;;;1.97;100.00
20156;BME280;10238;49.556;10.956;2022-11-20T09:57:20;97810.28;;;1.97;100.00
20156;BME280;10238;49.556;10.956;2022-11-20T10:00:13;97814.47;;;2.00;100.00
20156;BME280;10238;49.556;10.956;2022-11-20T10:03:11;97809.00;;;2.03;100.00
20156;BME280;10238;49.556;10.956;2022-11-20T10:06:01;97804.56;;;2.03;100.00
20156;BME280;10238;49.556;10.956;2022-11-20T10:08:58;97803.53;;;2.06;100.00
20156;BME280;10238;49.556;10.956;2022-11-20T10:11:51;97792.22;;;2.05;100.00
20156;BME280;10238;49.556;10.956;2022-11-20T10:18:16;97794.59;;;2.08;100.00
20156;BME280;10238;49.556;10.956;2022-11-20T10:21:13;97784.00;;;2.10;100.00
20156;BME280;10238;49.556;10.956;2022-11-20T10:24:18;97778.75;;;2.10;100.00
20156;BME280;10238;49.556;10.956;2022-11-20T10:27:35;97783.88;;;2.11;100.00
20156;BME280;10238;49.556;10.956;2022-11-20T10:30:28;97775.16;;;2.11;100.00
20156;BME280;10238;49.556;10.956;2022-11-20T10:33:21;97776.03;;;2.11;100.00
20156;BME280;10238;49.556;10.956;2022-11-20T10:36:17;97775.06;;;2.12;100.00
20156;BME280;10238;49.556;10.956;2022-11-20T10:39:11;97775.78;;;2.14;100.00
20156;BME280;10238;49.556;10.956;2022-11-20T10:42:03;97775.78;;;2.14;100.00
20156;BME280;10238;49.556;10.956;2022-11-20T10:45:04;97766.97;;;2.15;100.00
20156;BME280;10238;49.556;10.956;2022-11-20T10:48:09;97766.97;;;2.15;100.00
20156;BME280;10238;49.556;10.956;2022-11-20T10:51:16;97755.50;;;2.16;100.00
20156;BME280;10238;49.556;10.956;2022-11-20T10:54:13;97757.44;;;2.14;100.00
20156;BME280;10238;49.556;10.956;2022-11-20T10:57:12;97761.00;;;2.13;100.00
20156;BME280;10238;49.556;10.956;2022-11-20T11:00:07;97766.97;;;2.15;100.00
20156;BME280;10238;49.556;10.956;2022-11-20T11:02:57;97789.47;;;2.18;100.00
20156;BME280;10238;49.556;10.956;2022-11-20T11:05:51;97805.34;;;2.28;100.00
20156;BME280;10238;49.556;10.956;2022-11-20T11:08:43;97808.44;;;2.33;100.00
20156;BME280;10238;49.556;10.956;2022-11-20T11:11:33;97806.78;;;2.32;100.00
20156;BME280;10238;49.556;10.956;2022-11-20T11:14:21;97792.97;;;2.30;100.00
20156;BME280;10238;49.556;10.956;2022-11-20T11:17:21;97797.25;;;2.31;100.00
20156;BME280;10238;49.556;10.956;2022-11-20T11:20:17;97775.56;;;2.28;100.00
20156;BME280;10238;49.556;10.956;2022-11-20T11:23:32;97774.63;;;2.30;100.00
20156;BME280;10238;49.556;10.956;2022-11-20T11:26:23;97769.97;;;2.33;100.00
20156;BME280;10238;49.556;10.956;2022-11-20T11:29:18;97774.97;;;2.36;100.00
20156;BME280;10238;49.556;10.956;2022-11-20T11:32:08;97764.25;;;2.39;100.00
20156;BME280;10238;49.556;10.956;2022-11-20T11:35:00;97766.97;;;2.49;100.00
20156;BME280;10238;49.556;10.956;2022-11-20T11:37:49;97766.50;;;2.66;100.00
20156;BME280;10238;49.556;10.956;2022-11-20T11:40:39;97761.72;;;2.71;100.00
20156;BME280;10238;49.556;10.956;2022-11-20T11:43:31;97757.06;;;2.74;100.00
20156;BME280;10238;49.556;10.956;2022-11-20T11:46:38;97763.13;;;2.86;100.00
20156;BME280;10238;49.556;10.956;2022-11-20T11:49:26;97759.66;;;2.96;100.00
20156;BME280;10238;49.556;10.956;2022-11-20T11:52:16;97753.56;;;3.07;100.00
20156;BME280;10238;49.556;10.956;2022-11-20T11:55:07;97749.34;;;3.15;100.00
20156;BME280;10238;49.556;10.956;2022-11-20T11:58:14;97743.69;;;3.31;100.00
20156;BME280;10238;49.556;10.956;2022-11-20T12:01:12;97743.66;;;3.42;100.00
20156;BME280;10238;49.556;10.956;2022-11-20T12:04:14;97743.59;;;3.53;100.00
20156;BME280;10238;49.556;10.956;2022-11-20T12:07:12;97737.34;;;3.65;100.00
20156;BME280;10238;49.556;10.956;2022-11-20T12:10:23;97744.97;;;3.68;100.00
20156;BME280;10238;49.556;10.956;2022-11-20T12:13:39;97738.50;;;3.72;100.00
20156;BME280;10238;49.556;10.956;2022-11-20T12:16:32;97745.16;;;3.76;100.00
20156;BME280;10238;49.556;10.956;2022-11-20T12:19:21;97744.09;;;3.78;100.00
20156;BME280;10238;49.556;10.956;2022-11-20T12:22:20;97743.50;;;3.75;100.00
20156;BME280;10238;49.556;10.956;2022-11-20T12:25:17;97737.97;;;3.78;100.00
20156;BME280;10238;49.556;10.956;2022-11-20T12:32:20;97737.97;;;3.78;100.00
20156;BME280;10238;49.556;10.956;2022-11-20T12:35:24;97736.56;;;3.74;100.00
20156;BME280;10238;49.556;10.956;2022-11-20T12:38:44;97739.31;;;3.72;100.00
20156;BME280;10238;49.556;10.956;2022-11-20T12:53:17;97728.94;;;3.71;100.00
20156;BME280;10238;49.556;10.956;2022-11-20T12:56:43;97727.16;;;3.71;100.00
20156;BME280;10238;49.556;10.956;2022-11-20T13:03:32;97731.31;;;3.74;100.00
20156;BME280;10238;49.556;10.956;2022-11-20T13:06:25;97719.97;;;3.73;100.00
20156;BME280;10238;49.556;10.956;2022-11-20T13:09:15;97726.06;;;3.74;100.00
20156;BME280;10238;49.556;10.956;2022-11-20T13:12:08;97724.38;;;3.73;100.00
20156;BME280;10238;49.556;10.956;2022-11-20T13:15:05;97720.22;;;3.70;100.00
20156;BME280;10238;49.556;10.956;2022-11-20T13:17:59;97714.03;;;3.71;100.00
20156;BME280;10238;49.556;10.956;2022-11-20T13:20:48;97716.66;;;3.71;100.00
20156;BME280;10238;49.556;10.956;2022-11-20T13:23:37;97717.72;;;3.69;100.00
20156;BME280;10238;49.556;10.956;2022-11-20T13:26:26;97717.97;;;3.66;100.00
20156;BME280;10238;49.556;10.956;2022-11-20T13:29:18;97715.47;;;3.64;100.00
20156;BME280;10238;49.556;10.956;2022-11-20T13:32:13;97707.72;;;3.63;100.00
20156;BME280;10238;49.556;10.956;2022-11-20T13:35:03;97717.53;;;3.61;100.00
20156;BME280;10238;49.556;10.956;2022-11-20T13:38:01;97723.72;;;3.60;100.00
20156;BME280;10238;49.556;10.956;2022-11-20T13:40:55;97724.81;;;3.57;100.00
20156;BME280;10238;49.556;10.956;2022-11-20T13:43:46;97729.53;;;3.54;100.00
20156;BME280;10238;49.556;10.956;2022-11-20T13:46:39;97734.06;;;3.52;100.00
20156;BME280;10238;49.556;10.956;2022-11-20T13:49:31;97734.44;;;3.47;100.00
20156;BME280;10238;49.556;10.956;2022-11-20T13:52:34;97735.53;;;3.45;100.00
20156;BME280;10238;49.556;10.956;2022-11-20T13:55:33;97728.84;;;3.41;100.00
20156;BME280;10238;49.556;10.956;2022-11-20T13:58:33;97729.81;;;3.40;100.00
20156;BME280;10238;49.556;10.956;2022-11-20T14:01:26;97723.84;;;3.38;100.00
20156;BME280;10238;49.556;10.956;2022-11-20T14:04:19;97725.78;;;3.36;100.00
20156;BME280;10238;49.556;10.956;2022-11-20T14:07:12;97727.81;;;3.32;100.00
20156;BME280;10238;49.556;10.956;2022-11-20T14:10:00;97726.25;;;3.30;100.00
20156;BME280;10238;49.556;10.956;2022-11-20T14:12:49;97726.25;;;3.30;100.00
20156;BME280;10238;49.556;10.956;2022-11-20T14:15:38;97720.88;;;3.31;100.00
20156;BME280;10238;49.556;10.956;2022-11-20T14:18:31;97710.38;;;3.31;100.00
20156;BME280;10238;49.556;10.956;2022-11-20T14:21:23;97714.91;;;3.29;100.00
20156;BME280;10238;49.556;10.956;2022-11-20T14:24:13;97727.34;;;3.27;100.00
20156;BME280;10238;49.556;10.956;2022-11-20T14:27:01;97724.59;;;3.29;100.00
20156;BME280;10238;49.556;10.956;2022-11-20T14:29:50;97725.78;;;3.25;100.00
20156;BME280;10238;49.556;10.956;2022-11-20T14:32:40;97729.38;;;3.24;100.00
20156;BME280;10238;49.556;10.956;2022-11-20T14:35:30;97720.78;;;3.22;100.00
20156;BME280;10238;49.556;10.956;2022-11-20T14:38:22;97728.66;;;3.22;100.00
20156;BME280;10238;49.556;10.956;2022-11-20T14:41:18;97728.66;;;3.22;100.00
20156;BME280;10238;49.556;10.956;2022-11-20T14:44:08;97723.41;;;3.22;100.00
20156;BME280;10238;49.556;10.956;2022-11-20T14:46:57;97722.59;;;3.21;100.00
20156;BME280;10238;49.556;10.956;2022-11-20T14:49:48;97720.09;;;3.20;100.00
20156;BME280;10238;49.556;10.956;2022-11-20T14:52:36;97730.84;;;3.17;100.00
20156;BME280;10238;49.556;10.956;2022-11-20T14:55:29;97720.34;;;3.17;100.00
20156;BME280;10238;49.556;10.956;2022-11-20T14:58:22;97717.00;;;3.15;100.00
20156;BME280;10238;49.556;10.956;2022-11-20T15:01:13;97713.69;;;3.13;100.00
20156;BME280;10238;49.556;10.956;2022-11-20T15:04:05;97718.94;;;3.13;100.00
20156;BME280;10238;49.556;10.956;2022-11-20T15:06:56;97710.34;;;3.11;100.00
20156;BME280;10238;49.556;10.956;2022-11-20T15:09:45;97713.09;;;3.09;100.00
20156;BME280;10238;49.556;10.956;2022-11-20T15:12:34;97708.81;;;3.08;100.00
20156;BME280;10238;49.556;10.956;2022-11-20T15:15:27;97715.00;;;3.07;100.00
20156;BME280;10238;49.556;10.956;2022-11-20T15:18:19;97721.09;;;3.08;100.00